Main page
METAR-TAF:

METAR-TAF

Airports :

RAF Fairford

Fairford, England

latitude: 51-41N, longitude: 001-47W, elevation: 87 m

Current weather observation

The report was made 17 minutes ago, at 16:30 UTC
Wind 9 kt from the East/Northeast
Temperature 4°C
Humidity 81%
Pressure 1006 hPa
Visibility 10 km or more
Broken clouds at a height of 1700 ft
Overcast at a height of 2600 ft
light rain

METAR: EGVA 201630Z AUTO 07009KT 9999 -RA BKN017 OVC026 04/01 A2970 RMK AO2 RAB30 SLP064 $

Time: 16:47 (16:47 UTC)


TAF: missing

Weather observations and forecasts of more than 4000 airports (METAR and TAF reports).

The available stations are represented by yellow and red dots on the map.

Hover mouse over dot to see the name of the station.

Then click to see weather observations and forecasts.

To change the map : click on the green buttons with a black cross to zoom in, on the green button with a dash to zoom out, or on the green arrows for adjacent maps.


METAR-TAF: